createdAt,value
2024-03-02T00:00:22.923Z,5.80
2024-03-02T00:02:53.169Z,5.85
2024-03-02T00:05:25.459Z,5.83
2024-03-02T00:07:57.599Z,5.86
2024-03-02T00:10:30.570Z,5.94
2024-03-02T00:13:00.718Z,5.95
2024-03-02T00:15:45.967Z,5.99
2024-03-02T00:18:15.107Z,5.96
2024-03-02T00:20:44.358Z,5.98
2024-03-02T00:23:14.927Z,5.93
2024-03-02T00:25:50.815Z,6.11
2024-03-02T00:28:26.152Z,6.22
2024-03-02T00:31:08.520Z,6.14
2024-03-02T00:33:37.369Z,6.15
2024-03-02T00:36:05.112Z,6.15
2024-03-02T00:38:33.353Z,6.14
2024-03-02T00:41:01.564Z,6.14
2024-03-02T00:44:07.275Z,6.07
2024-03-02T00:46:35.791Z,6.05
2024-03-02T00:49:06.829Z,6.01
2024-03-02T00:51:37.790Z,5.91
2024-03-02T00:54:10.240Z,5.86
2024-03-02T00:56:36.856Z,5.80
2024-03-02T00:59:03.945Z,5.73
2024-03-02T01:01:33.068Z,5.69
2024-03-02T01:03:59.755Z,5.75
2024-03-02T01:06:28.090Z,5.66
2024-03-02T01:08:54.948Z,5.56
2024-03-02T01:11:24.795Z,5.57
2024-03-02T01:13:52.119Z,5.51
2024-03-02T01:16:18.627Z,5.48
2024-03-02T01:18:45.434Z,5.40
2024-03-02T01:21:12.387Z,5.34
2024-03-02T01:23:38.968Z,5.35
2024-03-02T01:26:05.660Z,5.34
2024-03-02T01:28:32.332Z,5.35
2024-03-02T01:30:59.139Z,5.31
2024-03-02T01:33:25.733Z,5.34
2024-03-02T01:35:52.346Z,5.35
2024-03-02T01:38:18.767Z,5.44
2024-03-02T01:40:47.971Z,5.39
2024-03-02T01:43:14.729Z,5.33
2024-03-02T01:45:41.404Z,5.35
2024-03-02T01:48:08.755Z,5.35
2024-03-02T01:50:37.213Z,5.43
2024-03-02T01:53:04.352Z,5.39
2024-03-02T01:55:31.868Z,5.37
2024-03-02T01:57:59.473Z,5.36
2024-03-02T02:00:27.416Z,5.42
2024-03-02T02:02:54.528Z,5.41
2024-03-02T02:05:21.157Z,5.37
2024-03-02T02:07:47.664Z,5.40
2024-03-02T02:10:14.252Z,5.37
2024-03-02T02:12:44.623Z,5.37
2024-03-02T02:15:27.479Z,5.32
2024-03-02T02:17:55.041Z,5.26
2024-03-02T02:20:21.725Z,5.27
2024-03-02T02:23:06.437Z,5.20
2024-03-02T02:25:33.221Z,5.19
2024-03-02T02:28:00.253Z,5.21
2024-03-02T02:30:35.072Z,5.17
2024-03-02T02:33:02.207Z,5.13
2024-03-02T02:35:29.480Z,5.29
2024-03-02T02:37:58.211Z,5.24
2024-03-02T02:40:25.088Z,5.21
2024-03-02T02:42:53.694Z,5.29
2024-03-02T02:45:20.952Z,5.31
2024-03-02T02:47:49.507Z,5.32
2024-03-02T02:50:16.241Z,5.28
2024-03-02T02:52:46.058Z,5.46
2024-03-02T02:55:14.167Z,5.24
2024-03-02T02:57:43.638Z,5.04
2024-03-02T03:00:18.405Z,5.02
2024-03-02T03:02:51.498Z,5.04
2024-03-02T03:05:19.183Z,4.96
2024-03-02T03:07:51.034Z,5.07
2024-03-02T03:10:24.340Z,5.15
2024-03-02T03:12:50.833Z,4.97
2024-03-02T03:15:17.807Z,4.98
2024-03-02T03:17:48.487Z,4.91
2024-03-02T03:20:16.405Z,4.89
2024-03-02T03:22:43.058Z,4.90
2024-03-02T03:25:11.992Z,4.82
2024-03-02T03:27:38.782Z,4.75
2024-03-02T03:30:07.704Z,4.79
2024-03-02T03:32:34.518Z,4.80
2024-03-02T03:35:01.017Z,4.90
2024-03-02T03:37:33.836Z,4.95
2024-03-02T03:40:02.339Z,4.93
2024-03-02T03:42:28.976Z,4.88
2024-03-02T03:44:55.390Z,4.82
2024-03-02T03:47:21.818Z,4.81
2024-03-02T03:49:48.383Z,4.97
2024-03-02T03:52:14.998Z,4.88
2024-03-02T03:54:44.222Z,4.80
2024-03-02T03:57:10.814Z,4.82
2024-03-02T03:59:38.378Z,4.97
2024-03-02T04:02:05.514Z,4.87
2024-03-02T04:04:31.998Z,4.88
2024-03-02T04:06:58.738Z,4.92
2024-03-02T04:09:27.374Z,4.94
2024-03-02T04:11:54.225Z,4.98
2024-03-02T04:14:21.011Z,5.10
2024-03-02T04:16:47.925Z,5.23
2024-03-02T04:19:14.600Z,5.35
2024-03-02T04:21:41.512Z,5.45
2024-03-02T04:24:10.512Z,5.42
2024-03-02T04:26:37.053Z,5.50
2024-03-02T04:29:03.631Z,5.48
2024-03-02T04:31:31.232Z,5.44
2024-03-02T04:33:57.689Z,5.57
2024-03-02T04:36:26.733Z,5.56
2024-03-02T04:38:53.248Z,5.59
2024-03-02T04:41:19.749Z,5.56
2024-03-02T04:43:46.185Z,5.55
2024-03-02T04:46:15.011Z,5.66
2024-03-02T04:48:41.617Z,5.59
2024-03-02T04:51:08.383Z,5.37
2024-03-02T04:53:35.283Z,5.34
2024-03-02T04:56:37.044Z,5.15
2024-03-02T04:59:04.814Z,5.41
2024-03-02T05:01:31.368Z,5.43
2024-03-02T05:03:57.987Z,5.43
2024-03-02T05:06:30.315Z,5.35
2024-03-02T05:08:57.707Z,5.24
2024-03-02T05:11:47.284Z,5.14
2024-03-02T05:14:14.044Z,5.02
2024-03-02T05:16:41.379Z,4.94
2024-03-02T05:19:10.654Z,4.87
2024-03-02T05:21:37.315Z,4.78
2024-03-02T05:24:04.444Z,4.72
2024-03-02T05:26:31.010Z,4.62
2024-03-02T05:28:57.564Z,4.54
2024-03-02T05:31:24.054Z,4.50
2024-03-02T05:33:54.884Z,4.46
2024-03-02T05:36:23.753Z,4.42
2024-03-02T05:38:50.435Z,4.28
2024-03-02T05:41:18.147Z,4.20
2024-03-02T05:43:44.679Z,4.14
2024-03-02T05:46:13.721Z,4.26
2024-03-02T05:48:40.524Z,4.26
2024-03-02T05:51:07.098Z,4.18
2024-03-02T05:53:39.110Z,4.25
2024-03-02T05:56:08.030Z,4.38
2024-03-02T05:58:55.805Z,4.42
2024-03-02T06:01:29.489Z,4.46
2024-03-02T06:03:57.399Z,4.54
2024-03-02T06:06:24.555Z,4.49
2024-03-02T06:08:51.980Z,4.48
2024-03-02T06:11:20.609Z,4.52
2024-03-02T06:13:47.422Z,4.44
2024-03-02T06:16:13.915Z,4.41
2024-03-02T06:18:41.435Z,4.35
2024-03-02T06:21:13.435Z,4.43
2024-03-02T06:23:40.830Z,4.45
2024-03-02T06:26:07.861Z,4.39
2024-03-02T06:28:36.927Z,4.40
2024-03-02T06:31:03.780Z,4.44
2024-03-02T06:33:30.414Z,4.43
2024-03-02T06:35:57.011Z,4.45
2024-03-02T06:38:26.851Z,4.42
2024-03-02T06:40:53.503Z,4.40
2024-03-02T06:43:24.358Z,4.41
2024-03-02T06:45:54.076Z,4.40
2024-03-02T06:48:23.521Z,4.37
2024-03-02T06:50:51.396Z,4.39
2024-03-02T06:53:18.861Z,4.41
2024-03-02T06:55:48.001Z,4.41
2024-03-02T06:58:19.100Z,4.44
2024-03-02T07:00:45.786Z,4.46
2024-03-02T07:03:12.548Z,4.48
2024-03-02T07:05:38.988Z,4.50
2024-03-02T07:08:06.745Z,4.53
2024-03-02T07:10:33.467Z,4.48
2024-03-02T07:13:00.165Z,4.48
2024-03-02T07:15:30.490Z,4.48
2024-03-02T07:17:57.110Z,4.47
2024-03-02T07:20:23.838Z,4.45
2024-03-02T07:22:50.308Z,4.42
2024-03-02T07:27:46.429Z,4.43
2024-03-02T07:30:18.787Z,4.45
2024-03-02T07:32:47.908Z,4.50
2024-03-02T07:35:15.151Z,4.58
2024-03-02T07:37:44.607Z,4.71
2024-03-02T07:40:15.239Z,4.93
2024-03-02T07:42:41.945Z,5.03
2024-03-02T07:45:08.935Z,5.15
2024-03-02T07:47:36.187Z,5.37
2024-03-02T07:50:03.022Z,5.48
2024-03-02T07:52:30.132Z,5.54
2024-03-02T07:54:56.866Z,5.61
2024-03-02T07:57:23.755Z,5.78
2024-03-02T07:59:51.689Z,6.12
2024-03-02T08:02:18.834Z,6.30
2024-03-02T08:04:47.120Z,6.49
2024-03-02T08:07:16.534Z,6.75
2024-03-02T08:09:43.184Z,6.97
2024-03-02T08:12:11.904Z,7.14
2024-03-02T08:14:38.379Z,7.42
2024-03-02T08:17:10.465Z,7.74
2024-03-02T08:19:42.253Z,7.99
2024-03-02T08:22:13.352Z,8.25
2024-03-02T08:24:39.902Z,8.54
2024-03-02T08:27:10.433Z,8.63
2024-03-02T08:29:39.224Z,8.89
2024-03-02T08:32:08.276Z,9.08
2024-03-02T08:34:36.601Z,9.24
2024-03-02T08:37:03.825Z,9.38
2024-03-02T08:39:30.733Z,9.55
2024-03-02T08:41:58.178Z,9.65
2024-03-02T08:44:27.148Z,9.97
2024-03-02T08:46:54.117Z,10.17
2024-03-02T08:49:26.652Z,10.29
2024-03-02T08:51:56.674Z,10.39
2024-03-02T08:54:33.561Z,10.44
2024-03-02T08:57:00.077Z,10.63
2024-03-02T08:59:28.842Z,10.72
2024-03-02T09:02:01.896Z,10.89
2024-03-02T09:04:34.680Z,10.97
2024-03-02T09:07:01.706Z,10.77
2024-03-02T09:09:33.109Z,10.67
2024-03-02T09:12:02.400Z,10.69
2024-03-02T09:14:29.015Z,10.79
2024-03-02T09:16:55.760Z,10.88
2024-03-02T09:19:22.208Z,10.99
2024-03-02T09:21:48.839Z,10.87
2024-03-02T09:24:17.727Z,10.92
2024-03-02T09:26:45.144Z,11.14
2024-03-02T09:29:11.884Z,11.26
2024-03-02T09:31:43.652Z,11.14
2024-03-02T09:34:10.690Z,11.10
2024-03-02T09:36:37.227Z,11.04
2024-03-02T09:39:05.350Z,11.14
2024-03-02T09:41:34.004Z,11.24
2024-03-02T09:44:03.377Z,11.20
2024-03-02T09:46:30.866Z,11.28
2024-03-02T09:48:57.664Z,11.29
2024-03-02T09:51:24.627Z,11.35
2024-03-02T09:53:56.735Z,11.38
2024-03-02T09:56:24.996Z,11.36
2024-03-02T09:58:51.455Z,11.47
2024-03-02T10:01:18.253Z,11.63
2024-03-02T10:03:46.798Z,11.69
2024-03-02T10:06:21.568Z,11.76
2024-03-02T10:08:49.888Z,11.85
2024-03-02T10:11:34.014Z,11.83
2024-03-02T10:14:09.262Z,11.84
2024-03-02T10:16:41.433Z,11.90
2024-03-02T10:19:25.108Z,12.00
2024-03-02T10:21:53.054Z,12.02
2024-03-02T10:24:20.771Z,12.11
2024-03-02T10:26:49.897Z,12.11
2024-03-02T10:29:17.871Z,12.24
2024-03-02T10:31:48.417Z,12.22
2024-03-02T10:34:16.983Z,12.26
2024-03-02T10:36:46.551Z,12.21
2024-03-02T10:39:16.460Z,12.41
2024-03-02T10:41:43.229Z,12.52
2024-03-02T10:44:10.644Z,12.52
2024-03-02T10:46:38.172Z,12.66
2024-03-02T10:49:08.809Z,12.69
2024-03-02T10:51:37.928Z,12.70
2024-03-02T10:54:07.936Z,12.83
2024-03-02T10:56:42.438Z,12.77
2024-03-02T10:59:27.598Z,12.80
2024-03-02T11:02:14.893Z,12.82
2024-03-02T11:04:45.441Z,12.76
2024-03-02T11:07:13.336Z,12.73
2024-03-02T11:10:10.764Z,13.00
2024-03-02T11:12:43.745Z,13.11
2024-03-02T11:15:22.273Z,13.19
2024-03-02T11:17:49.812Z,13.26
2024-03-02T11:20:20.101Z,13.35
2024-03-02T11:22:48.271Z,13.44
2024-03-02T11:25:33.201Z,13.30
2024-03-02T11:28:04.824Z,13.38
2024-03-02T11:30:34.745Z,13.39
2024-03-02T11:33:13.333Z,13.61
2024-03-02T11:35:47.844Z,13.39
2024-03-02T11:38:14.659Z,13.40
2024-03-02T11:40:41.871Z,13.40
2024-03-02T11:43:09.406Z,13.39
2024-03-02T11:45:41.226Z,13.61
2024-03-02T11:48:13.478Z,13.70
2024-03-02T11:50:48.354Z,13.71
2024-03-02T11:53:15.466Z,13.75
2024-03-02T11:55:42.332Z,13.73
2024-03-02T11:58:09.226Z,13.82
2024-03-02T12:00:36.589Z,13.89
2024-03-02T12:03:06.071Z,13.89
2024-03-02T12:05:33.562Z,13.88
2024-03-02T12:08:05.030Z,13.93
2024-03-02T12:10:32.552Z,14.04
2024-03-02T12:13:00.097Z,13.97
2024-03-02T12:15:38.011Z,13.99
2024-03-02T12:18:05.803Z,14.13
2024-03-02T12:20:36.209Z,14.12
2024-03-02T12:23:05.426Z,14.26
2024-03-02T12:25:34.615Z,14.02
2024-03-02T12:28:03.299Z,14.17
2024-03-02T12:30:31.847Z,14.26
2024-03-02T12:32:58.391Z,14.32
2024-03-02T12:35:26.602Z,14.38
2024-03-02T12:37:54.888Z,14.43
2024-03-02T12:40:23.787Z,14.28
2024-03-02T12:42:53.319Z,14.29
2024-03-02T12:45:25.293Z,14.26
2024-03-02T12:47:55.081Z,14.38
2024-03-02T12:50:22.477Z,14.26
2024-03-02T12:52:56.555Z,14.28
2024-03-02T12:55:24.394Z,14.35
2024-03-02T12:57:53.304Z,14.32
2024-03-02T13:00:22.561Z,14.38
2024-03-02T13:02:53.246Z,14.30
2024-03-02T13:05:20.847Z,14.36
2024-03-02T13:07:50.571Z,14.39
2024-03-02T13:10:17.984Z,14.53
2024-03-02T13:12:47.043Z,14.47
2024-03-02T13:15:18.167Z,14.53
2024-03-02T13:17:48.475Z,14.70
2024-03-02T13:20:16.276Z,14.91
2024-03-02T13:22:43.317Z,14.86
2024-03-02T13:25:11.565Z,14.79
2024-03-02T13:27:38.551Z,14.63
2024-03-02T13:30:07.041Z,14.73
2024-03-02T13:32:33.745Z,14.76
2024-03-02T13:35:00.424Z,14.60
2024-03-02T13:37:26.969Z,14.53
2024-03-02T13:39:53.562Z,14.52
2024-03-02T13:42:20.071Z,14.53
2024-03-02T13:44:48.487Z,14.49
2024-03-02T13:47:15.653Z,14.49
2024-03-02T13:49:48.217Z,14.46
2024-03-02T13:52:16.209Z,14.39
2024-03-02T13:54:47.825Z,14.39
2024-03-02T13:57:14.939Z,14.31
2024-03-02T13:59:43.388Z,14.23
2024-03-02T14:02:10.586Z,14.30
2024-03-02T14:04:38.142Z,14.43
2024-03-02T14:07:09.804Z,14.36
2024-03-02T14:09:38.871Z,14.27
2024-03-02T14:12:06.886Z,14.34
2024-03-02T14:14:35.783Z,14.26
2024-03-02T14:17:07.809Z,14.20
2024-03-02T14:19:34.484Z,14.20
2024-03-02T14:22:01.427Z,14.14
2024-03-02T14:24:29.835Z,14.23
2024-03-02T14:27:05.513Z,14.25
2024-03-02T14:29:38.951Z,14.27
2024-03-02T14:32:08.565Z,14.33
2024-03-02T14:34:37.027Z,14.36
2024-03-02T14:37:04.202Z,14.43
2024-03-02T14:39:35.656Z,14.41
2024-03-02T14:42:02.728Z,14.40
2024-03-02T14:44:29.311Z,14.52
2024-03-02T14:46:55.922Z,14.56
2024-03-02T14:49:22.464Z,14.70
2024-03-02T14:51:50.987Z,14.79
2024-03-02T14:54:17.495Z,14.76
2024-03-02T14:56:44.089Z,14.77
2024-03-02T14:59:11.946Z,14.76
2024-03-02T15:01:39.112Z,14.75
2024-03-02T15:04:06.014Z,14.71
2024-03-02T15:06:35.722Z,14.70
2024-03-02T15:09:02.837Z,14.61
2024-03-02T15:11:29.931Z,14.52
2024-03-02T15:13:59.024Z,14.39
2024-03-02T15:16:25.631Z,14.33
2024-03-02T15:18:54.404Z,14.35
2024-03-02T15:21:22.339Z,14.24
2024-03-02T15:23:50.071Z,14.27
2024-03-02T15:26:16.726Z,14.23
2024-03-02T15:28:43.825Z,14.16
2024-03-02T15:31:12.828Z,14.07
2024-03-02T15:33:39.511Z,14.03
2024-03-02T15:36:06.919Z,13.92
2024-03-02T15:38:35.617Z,13.95
2024-03-02T15:41:05.446Z,13.86
2024-03-02T15:43:32.999Z,13.82
2024-03-02T15:46:04.617Z,13.80
2024-03-02T15:48:31.207Z,13.79
2024-03-02T15:51:00.926Z,13.72
2024-03-02T15:53:33.181Z,13.68
2024-03-02T15:55:59.873Z,13.59
2024-03-02T15:58:26.431Z,13.54
2024-03-02T16:00:52.986Z,13.46
2024-03-02T16:03:22.115Z,13.40
2024-03-02T16:05:48.534Z,13.29
2024-03-02T16:08:15.053Z,13.24
2024-03-02T16:10:44.121Z,13.16
2024-03-02T16:13:10.721Z,13.13
2024-03-02T16:15:37.404Z,13.04
2024-03-02T16:18:04.440Z,12.99
2024-03-02T16:20:31.330Z,12.95
2024-03-02T16:22:57.908Z,12.91
2024-03-02T16:25:26.368Z,12.82
2024-03-02T16:27:53.273Z,12.77
2024-03-02T16:30:21.161Z,12.75
2024-03-02T16:32:48.872Z,12.68
2024-03-02T16:35:16.471Z,12.63
2024-03-02T16:37:43.420Z,12.56
2024-03-02T16:40:13.549Z,12.48
2024-03-02T16:42:40.865Z,12.44
2024-03-02T16:45:07.794Z,12.39
2024-03-02T16:47:34.314Z,12.35
2024-03-02T16:50:01.008Z,12.33
2024-03-02T16:52:30.002Z,12.31
2024-03-02T16:54:57.317Z,12.29
2024-03-02T16:57:24.220Z,12.32
2024-03-02T16:59:50.736Z,12.28
2024-03-02T17:02:17.763Z,12.27
2024-03-02T17:04:44.250Z,12.19
2024-03-02T17:07:13.130Z,12.20
2024-03-02T17:09:42.162Z,12.30
2024-03-02T17:12:08.726Z,12.23
2024-03-02T17:14:35.198Z,12.23
2024-03-02T17:17:02.098Z,12.21
2024-03-02T17:19:30.854Z,12.16
2024-03-02T17:21:57.394Z,12.11
2024-03-02T17:24:23.891Z,12.10
2024-03-02T17:26:50.344Z,12.05
2024-03-02T17:29:16.864Z,12.03
2024-03-02T17:31:43.338Z,12.10
2024-03-02T17:34:10.924Z,12.08
2024-03-02T17:36:37.480Z,12.08
2024-03-02T17:39:06.856Z,12.01
2024-03-02T17:41:33.644Z,12.02
2024-03-02T17:44:00.087Z,12.02
2024-03-02T17:46:29.141Z,12.04
2024-03-02T17:48:55.692Z,12.13
2024-03-02T17:51:22.670Z,12.16
2024-03-02T17:53:53.972Z,12.15
2024-03-02T17:56:20.452Z,12.14
2024-03-02T17:58:46.945Z,12.29
2024-03-02T18:01:13.566Z,12.37
2024-03-02T18:03:40.157Z,12.45
2024-03-02T18:06:06.905Z,12.39
2024-03-02T18:08:36.110Z,12.49
2024-03-02T18:11:04.664Z,12.64
2024-03-02T18:13:31.418Z,12.68
2024-03-02T18:15:58.274Z,12.76
2024-03-02T18:18:24.897Z,12.78
2024-03-02T18:20:52.029Z,12.83
2024-03-02T18:23:22.714Z,12.96
2024-03-02T18:25:49.359Z,12.98
2024-03-02T18:28:15.949Z,12.95
2024-03-02T18:30:43.020Z,12.88
2024-03-02T18:33:09.571Z,12.90
2024-03-02T18:35:37.443Z,12.89
2024-03-02T18:38:04.923Z,12.90
2024-03-02T18:40:31.832Z,12.83
2024-03-02T18:43:00.238Z,12.76
2024-03-02T18:45:26.830Z,12.78
2024-03-02T18:47:55.873Z,12.70
2024-03-02T18:50:22.495Z,12.79
2024-03-02T18:52:52.770Z,12.76
2024-03-02T18:55:38.109Z,12.81
2024-03-02T18:58:05.133Z,12.71
2024-03-02T19:00:31.993Z,12.71
2024-03-02T19:03:01.403Z,12.72
2024-03-02T19:05:30.626Z,12.70
2024-03-02T19:07:57.124Z,12.62
2024-03-02T19:10:23.619Z,12.62
2024-03-02T19:12:50.547Z,12.51
2024-03-02T19:15:17.522Z,12.46
2024-03-02T19:17:44.163Z,12.36
2024-03-02T19:20:12.784Z,12.33
2024-03-02T19:25:13.183Z,12.14
2024-03-02T19:27:39.792Z,12.15
2024-03-02T19:30:08.777Z,12.16
2024-03-02T19:32:35.525Z,12.05
2024-03-02T19:35:02.118Z,12.03
2024-03-02T19:37:28.654Z,11.99
2024-03-02T19:39:55.218Z,11.97
2024-03-02T19:42:21.739Z,11.91
2024-03-02T19:44:48.214Z,11.82
2024-03-02T19:47:21.439Z,11.77
2024-03-02T19:49:48.586Z,11.77
2024-03-02T19:52:15.676Z,11.69
2024-03-02T19:54:42.758Z,11.67
2024-03-02T19:57:11.523Z,11.63
2024-03-02T19:59:40.442Z,11.56
2024-03-02T20:02:11.380Z,11.56
2024-03-02T20:04:39.778Z,11.56
2024-03-02T20:07:06.351Z,11.56
2024-03-02T20:09:34.238Z,11.64
2024-03-02T20:12:01.120Z,11.69
2024-03-02T20:14:27.608Z,11.73
2024-03-02T20:16:57.395Z,11.73
2024-03-02T20:19:24.465Z,11.77
2024-03-02T20:21:50.919Z,11.77
2024-03-02T20:24:17.446Z,11.78
2024-03-02T20:26:44.206Z,11.79
2024-03-02T20:29:10.736Z,11.77
2024-03-02T20:31:39.053Z,11.81
2024-03-02T20:34:05.692Z,11.69
2024-03-02T20:36:34.844Z,11.66
2024-03-02T20:39:01.379Z,11.60
2024-03-02T20:41:27.967Z,11.63
2024-03-02T20:43:54.407Z,11.64
2024-03-02T20:46:21.035Z,11.62
2024-03-02T20:48:50.226Z,11.62
2024-03-02T20:51:16.968Z,11.67
2024-03-02T20:53:43.430Z,11.69
2024-03-02T20:56:09.976Z,11.64
2024-03-02T20:58:36.403Z,11.68
2024-03-02T21:01:04.013Z,11.65
2024-03-02T21:03:30.531Z,11.61
2024-03-02T21:05:57.107Z,11.63
2024-03-02T21:08:24.492Z,11.59
2024-03-02T21:10:50.990Z,11.53
2024-03-02T21:13:18.084Z,11.47
2024-03-02T21:15:45.952Z,11.46
2024-03-02T21:18:14.991Z,11.46
2024-03-02T21:20:41.636Z,11.49
2024-03-02T21:23:12.408Z,11.43
2024-03-02T21:25:40.471Z,11.40
2024-03-02T21:28:07.042Z,11.43
2024-03-02T21:30:36.459Z,11.40
2024-03-02T21:33:05.001Z,11.45
2024-03-02T21:35:34.822Z,11.35
2024-03-02T21:38:04.466Z,11.37
2024-03-02T21:40:31.993Z,11.42
2024-03-02T21:42:59.618Z,11.41
2024-03-02T21:45:32.110Z,11.38
2024-03-02T21:47:58.617Z,11.40
2024-03-02T21:50:28.963Z,11.35
2024-03-02T21:52:56.167Z,11.34
2024-03-02T21:55:22.809Z,11.32
2024-03-02T21:57:55.836Z,11.30
2024-03-02T22:00:22.503Z,11.22
2024-03-02T22:02:56.657Z,11.21
2024-03-02T22:05:25.577Z,11.21
2024-03-02T22:07:52.169Z,11.20
2024-03-02T22:10:19.240Z,11.13
2024-03-02T22:12:46.769Z,11.08
2024-03-02T22:15:15.529Z,11.15
2024-03-02T22:17:42.122Z,11.05
2024-03-02T22:20:09.232Z,11.04
2024-03-02T22:22:38.716Z,11.08
2024-03-02T22:25:06.322Z,10.95
2024-03-02T22:27:35.686Z,10.92
2024-03-02T22:30:03.313Z,10.80
2024-03-02T22:32:48.663Z,10.85
2024-03-02T22:35:15.166Z,10.72
2024-03-02T22:37:46.484Z,10.73
2024-03-02T22:40:13.220Z,10.76
2024-03-02T22:42:39.860Z,10.68
2024-03-02T22:45:07.086Z,10.67
2024-03-02T22:47:33.719Z,10.66
2024-03-02T22:50:00.158Z,10.63
2024-03-02T22:52:26.609Z,10.60
2024-03-02T22:54:53.166Z,10.63
2024-03-02T22:57:20.199Z,10.59
2024-03-02T22:59:50.957Z,10.50
2024-03-02T23:02:18.842Z,10.50
2024-03-02T23:04:48.510Z,10.46
2024-03-02T23:07:20.470Z,10.30
2024-03-02T23:09:47.371Z,10.31
2024-03-02T23:12:14.280Z,10.33
2024-03-02T23:14:44.182Z,10.24
2024-03-02T23:17:13.278Z,10.26
2024-03-02T23:19:39.858Z,10.23
2024-03-02T23:22:06.639Z,10.25
2024-03-02T23:24:34.061Z,10.27
2024-03-02T23:27:01.393Z,10.34
2024-03-02T23:29:28.023Z,10.29
2024-03-02T23:31:54.426Z,10.29
2024-03-02T23:34:21.043Z,10.30
2024-03-02T23:36:47.783Z,10.27
2024-03-02T23:39:34.323Z,10.22
2024-03-02T23:42:00.814Z,10.23
2024-03-02T23:44:27.499Z,10.16
2024-03-02T23:46:54.102Z,10.14
2024-03-02T23:49:21.516Z,10.16
2024-03-02T23:51:48.015Z,10.25
2024-03-02T23:54:14.575Z,10.18
2024-03-02T23:56:41.168Z,10.23
2024-03-02T23:59:07.980Z,10.18
